sensor_id;sensor_type;location;lat;lon;timestamp;temperature;humidity
67897;DHT22;54698;48.428;9.964;2022-11-20T00:01:19;5.00;99.90
67897;DHT22;54698;48.428;9.964;2022-11-20T00:03:46;4.90;99.90
67897;DHT22;54698;48.428;9.964;2022-11-20T00:06:14;4.90;99.90
67897;DHT22;54698;48.428;9.964;2022-11-20T00:08:42;4.90;99.90
67897;DHT22;54698;48.428;9.964;2022-11-20T00:11:11;5.00;99.90
67897;DHT22;54698;48.428;9.964;2022-11-20T00:13:38;5.10;99.90
67897;DHT22;54698;48.428;9.964;2022-11-20T00:16:06;5.10;99.90
67897;DHT22;54698;48.428;9.964;2022-11-20T00:18:34;5.10;99.90
67897;DHT22;54698;48.428;9.964;2022-11-20T00:21:01;5.10;99.90
67897;DHT22;54698;48.428;9.964;2022-11-20T00:23:28;5.10;99.90
67897;DHT22;54698;48.428;9.964;2022-11-20T00:25:54;5.10;99.90
67897;DHT22;54698;48.428;9.964;2022-11-20T00:28:21;5.10;99.90
67897;DHT22;54698;48.428;9.964;2022-11-20T00:30:47;5.00;99.90
67897;DHT22;54698;48.428;9.964;2022-11-20T00:33:13;5.00;99.90
67897;DHT22;54698;48.428;9.964;2022-11-20T00:35:39;5.00;99.90
67897;DHT22;54698;48.428;9.964;2022-11-20T00:38:05;5.00;99.90
67897;DHT22;54698;48.428;9.964;2022-11-20T00:40:31;4.90;99.90
67897;DHT22;54698;48.428;9.964;2022-11-20T00:42:56;4.90;99.90
67897;DHT22;54698;48.428;9.964;2022-11-20T00:45:24;4.80;99.90
67897;DHT22;54698;48.428;9.964;2022-11-20T00:47:50;4.70;99.90
67897;DHT22;54698;48.428;9.964;2022-11-20T00:50:15;4.70;99.90
67897;DHT22;54698;48.428;9.964;2022-11-20T00:52:41;4.60;99.90
67897;DHT22;54698;48.428;9.964;2022-11-20T00:55:07;4.60;99.90
67897;DHT22;54698;48.428;9.964;2022-11-20T00:57:33;4.50;99.90
67897;DHT22;54698;48.428;9.964;2022-11-20T00:59:59;4.50;99.90
67897;DHT22;54698;48.428;9.964;2022-11-20T01:02:26;4.40;99.90
67897;DHT22;54698;48.428;9.964;2022-11-20T01:04:52;4.30;99.90
67897;DHT22;54698;48.428;9.964;2022-11-20T01:07:18;4.20;99.90
67897;DHT22;54698;48.428;9.964;2022-11-20T01:09:44;4.20;99.90
67897;DHT22;54698;48.428;9.964;2022-11-20T01:12:10;4.10;99.90
67897;DHT22;54698;48.428;9.964;2022-11-20T01:14:36;4.00;99.90
67897;DHT22;54698;48.428;9.964;2022-11-20T01:17:02;3.90;99.90
67897;DHT22;54698;48.428;9.964;2022-11-20T01:19:29;3.90;99.90
67897;DHT22;54698;48.428;9.964;2022-11-20T01:21:55;3.80;99.90
67897;DHT22;54698;48.428;9.964;2022-11-20T01:24:22;3.70;99.90
67897;DHT22;54698;48.428;9.964;2022-11-20T01:26:50;3.60;99.90
67897;DHT22;54698;48.428;9.964;2022-11-20T01:29:18;3.60;99.90
67897;DHT22;54698;48.428;9.964;2022-11-20T01:31:45;3.50;99.90
67897;DHT22;54698;48.428;9.964;2022-11-20T01:34:13;3.40;99.90
67897;DHT22;54698;48.428;9.964;2022-11-20T01:36:42;3.30;99.90
67897;DHT22;54698;48.428;9.964;2022-11-20T01:39:12;3.20;99.90
67897;DHT22;54698;48.428;9.964;2022-11-20T01:41:40;3.10;99.90
67897;DHT22;54698;48.428;9.964;2022-11-20T01:44:06;3.00;99.90
67897;DHT22;54698;48.428;9.964;2022-11-20T01:46:35;3.00;99.90
67897;DHT22;54698;48.428;9.964;2022-11-20T01:49:05;3.00;99.90
67897;DHT22;54698;48.428;9.964;2022-11-20T01:51:38;2.90;99.90
67897;DHT22;54698;48.428;9.964;2022-11-20T01:54:09;2.80;99.90
67897;DHT22;54698;48.428;9.964;2022-11-20T01:56:40;2.90;99.90
67897;DHT22;54698;48.428;9.964;2022-11-20T01:59:10;2.80;99.90
67897;DHT22;54698;48.428;9.964;2022-11-20T02:01:37;2.80;99.90
67897;DHT22;54698;48.428;9.964;2022-11-20T02:04:04;2.80;99.90
67897;DHT22;54698;48.428;9.964;2022-11-20T02:06:34;2.90;99.90
67897;DHT22;54698;48.428;9.964;2022-11-20T02:09:03;2.90;99.90
67897;DHT22;54698;48.428;9.964;2022-11-20T02:11:30;2.80;99.90
67897;DHT22;54698;48.428;9.964;2022-11-20T02:13:56;2.80;99.90
67897;DHT22;54698;48.428;9.964;2022-11-20T02:16:23;2.80;99.90
67897;DHT22;54698;48.428;9.964;2022-11-20T02:18:51;2.80;99.90
67897;DHT22;54698;48.428;9.964;2022-11-20T02:21:25;2.80;99.90
67897;DHT22;54698;48.428;9.964;2022-11-20T02:24:09;2.80;99.90
67897;DHT22;54698;48.428;9.964;2022-11-20T02:26:46;2.90;99.90
67897;DHT22;54698;48.428;9.964;2022-11-20T02:29:16;3.00;99.90
67897;DHT22;54698;48.428;9.964;2022-11-20T02:31:43;3.00;99.90
67897;DHT22;54698;48.428;9.964;2022-11-20T02:34:10;3.10;99.90
67897;DHT22;54698;48.428;9.964;2022-11-20T02:36:38;3.10;99.90
67897;DHT22;54698;48.428;9.964;2022-11-20T02:39:05;3.10;99.90
67897;DHT22;54698;48.428;9.964;2022-11-20T02:41:34;3.20;99.90
67897;DHT22;54698;48.428;9.964;2022-11-20T02:44:01;3.10;99.90
67897;DHT22;54698;48.428;9.964;2022-11-20T02:46:28;3.10;99.90
67897;DHT22;54698;48.428;9.964;2022-11-20T02:48:54;3.00;99.90
67897;DHT22;54698;48.428;9.964;2022-11-20T02:51:20;3.00;99.90
67897;DHT22;54698;48.428;9.964;2022-11-20T02:53:46;2.90;99.90
67897;DHT22;54698;48.428;9.964;2022-11-20T02:56:13;2.90;99.90
67897;DHT22;54698;48.428;9.964;2022-11-20T02:58:39;2.70;99.90
67897;DHT22;54698;48.428;9.964;2022-11-20T03:01:05;2.60;99.90
67897;DHT22;54698;48.428;9.964;2022-11-20T03:03:31;2.60;99.90
67897;DHT22;54698;48.428;9.964;2022-11-20T03:05:58;2.60;99.90
67897;DHT22;54698;48.428;9.964;2022-11-20T03:08:24;2.60;99.90
67897;DHT22;54698;48.428;9.964;2022-11-20T03:10:50;2.60;99.90
67897;DHT22;54698;48.428;9.964;2022-11-20T03:13:18;2.60;99.90
67897;DHT22;54698;48.428;9.964;2022-11-20T03:15:44;2.60;99.90
67897;DHT22;54698;48.428;9.964;2022-11-20T03:18:10;2.60;99.90
67897;DHT22;54698;48.428;9.964;2022-11-20T03:20:35;2.70;99.90
67897;DHT22;54698;48.428;9.964;2022-11-20T03:23:02;2.70;99.90
67897;DHT22;54698;48.428;9.964;2022-11-20T03:25:28;2.70;99.90
67897;DHT22;54698;48.428;9.964;2022-11-20T03:27:54;2.60;99.90
67897;DHT22;54698;48.428;9.964;2022-11-20T03:30:22;2.70;99.90
67897;DHT22;54698;48.428;9.964;2022-11-20T03:32:48;2.60;99.90
67897;DHT22;54698;48.428;9.964;2022-11-20T03:35:13;2.60;99.90
67897;DHT22;54698;48.428;9.964;2022-11-20T03:37:39;2.60;99.90
67897;DHT22;54698;48.428;9.964;2022-11-20T03:40:06;2.60;99.90
67897;DHT22;54698;48.428;9.964;2022-11-20T03:42:33;2.70;99.90
67897;DHT22;54698;48.428;9.964;2022-11-20T03:44:59;2.70;99.90
67897;DHT22;54698;48.428;9.964;2022-11-20T03:47:26;2.60;99.90
67897;DHT22;54698;48.428;9.964;2022-11-20T03:49:52;2.60;99.90
67897;DHT22;54698;48.428;9.964;2022-11-20T03:52:18;2.60;99.90
67897;DHT22;54698;48.428;9.964;2022-11-20T03:54:44;2.50;99.90
67897;DHT22;54698;48.428;9.964;2022-11-20T03:57:10;2.40;99.90
67897;DHT22;54698;48.428;9.964;2022-11-20T03:59:35;2.40;99.90
67897;DHT22;54698;48.428;9.964;2022-11-20T04:02:01;2.30;99.90
67897;DHT22;54698;48.428;9.964;2022-11-20T04:04:29;2.40;99.90
67897;DHT22;54698;48.428;9.964;2022-11-20T04:06:54;2.30;99.90
67897;DHT22;54698;48.428;9.964;2022-11-20T04:09:20;2.40;99.90
67897;DHT22;54698;48.428;9.964;2022-11-20T04:11:46;2.40;99.90
67897;DHT22;54698;48.428;9.964;2022-11-20T04:14:14;2.50;99.90
67897;DHT22;54698;48.428;9.964;2022-11-20T04:16:41;2.60;99.90
67897;DHT22;54698;48.428;9.964;2022-11-20T04:19:12;2.70;99.90
67897;DHT22;54698;48.428;9.964;2022-11-20T04:21:40;2.80;99.90
67897;DHT22;54698;48.428;9.964;2022-11-20T04:24:07;2.90;99.90
67897;DHT22;54698;48.428;9.964;2022-11-20T04:26:33;2.90;99.90
67897;DHT22;54698;48.428;9.964;2022-11-20T04:28:59;2.90;99.90
67897;DHT22;54698;48.428;9.964;2022-11-20T04:31:27;2.90;99.90
67897;DHT22;54698;48.428;9.964;2022-11-20T04:33:55;2.90;99.90
67897;DHT22;54698;48.428;9.964;2022-11-20T04:36:22;2.90;99.90
67897;DHT22;54698;48.428;9.964;2022-11-20T04:38:52;2.90;99.90
67897;DHT22;54698;48.428;9.964;2022-11-20T04:41:21;2.90;99.90
67897;DHT22;54698;48.428;9.964;2022-11-20T04:43:48;2.80;99.90
67897;DHT22;54698;48.428;9.964;2022-11-20T04:46:15;2.80;99.90
67897;DHT22;54698;48.428;9.964;2022-11-20T04:48:42;2.80;99.90
67897;DHT22;54698;48.428;9.964;2022-11-20T04:51:07;2.80;99.90
67897;DHT22;54698;48.428;9.964;2022-11-20T04:53:33;2.70;99.90
67897;DHT22;54698;48.428;9.964;2022-11-20T04:56:01;2.70;99.90
67897;DHT22;54698;48.428;9.964;2022-11-20T04:58:28;2.70;99.90
67897;DHT22;54698;48.428;9.964;2022-11-20T05:01:00;2.70;99.90
67897;DHT22;54698;48.428;9.964;2022-11-20T05:03:27;2.70;99.90
67897;DHT22;54698;48.428;9.964;2022-11-20T05:05:53;2.80;99.90
67897;DHT22;54698;48.428;9.964;2022-11-20T05:08:19;2.80;99.90
67897;DHT22;54698;48.428;9.964;2022-11-20T05:10:44;2.90;99.90
67897;DHT22;54698;48.428;9.964;2022-11-20T05:13:12;2.90;99.90
67897;DHT22;54698;48.428;9.964;2022-11-20T05:15:38;2.90;99.90
67897;DHT22;54698;48.428;9.964;2022-11-20T05:18:04;2.90;99.90
67897;DHT22;54698;48.428;9.964;2022-11-20T05:20:29;2.90;99.90
67897;DHT22;54698;48.428;9.964;2022-11-20T05:22:56;2.90;99.90
67897;DHT22;54698;48.428;9.964;2022-11-20T05:25:22;2.90;99.90
67897;DHT22;54698;48.428;9.964;2022-11-20T05:27:48;2.90;99.90
67897;DHT22;54698;48.428;9.964;2022-11-20T05:30:16;2.90;99.90
67897;DHT22;54698;48.428;9.964;2022-11-20T05:32:41;2.90;99.90
67897;DHT22;54698;48.428;9.964;2022-11-20T05:35:08;2.90;99.90
67897;DHT22;54698;48.428;9.964;2022-11-20T05:37:34;3.00;99.90
67897;DHT22;54698;48.428;9.964;2022-11-20T05:39:59;2.90;99.90
67897;DHT22;54698;48.428;9.964;2022-11-20T05:42:25;2.90;99.90
67897;DHT22;54698;48.428;9.964;2022-11-20T05:44:51;2.90;99.90
67897;DHT22;54698;48.428;9.964;2022-11-20T05:47:18;2.90;99.90
67897;DHT22;54698;48.428;9.964;2022-11-20T05:49:44;2.90;99.90
67897;DHT22;54698;48.428;9.964;2022-11-20T05:52:10;2.90;99.90
67897;DHT22;54698;48.428;9.964;2022-11-20T05:54:36;2.90;99.90
67897;DHT22;54698;48.428;9.964;2022-11-20T05:57:02;2.80;99.90
67897;DHT22;54698;48.428;9.964;2022-11-20T05:59:28;2.80;99.90
67897;DHT22;54698;48.428;9.964;2022-11-20T06:01:54;2.80;99.90
67897;DHT22;54698;48.428;9.964;2022-11-20T06:04:21;2.70;99.90
67897;DHT22;54698;48.428;9.964;2022-11-20T06:06:47;2.70;99.90
67897;DHT22;54698;48.428;9.964;2022-11-20T06:09:13;2.60;99.90
67897;DHT22;54698;48.428;9.964;2022-11-20T06:11:39;2.70;99.90
67897;DHT22;54698;48.428;9.964;2022-11-20T06:14:05;2.60;99.90
67897;DHT22;54698;48.428;9.964;2022-11-20T06:16:31;2.70;99.90
67897;DHT22;54698;48.428;9.964;2022-11-20T06:18:57;2.70;99.90
67897;DHT22;54698;48.428;9.964;2022-11-20T06:21:24;2.70;99.90
67897;DHT22;54698;48.428;9.964;2022-11-20T06:23:52;2.70;99.90
67897;DHT22;54698;48.428;9.964;2022-11-20T06:26:19;2.70;99.90
67897;DHT22;54698;48.428;9.964;2022-11-20T06:28:46;2.80;99.90
67897;DHT22;54698;48.428;9.964;2022-11-20T06:31:14;2.80;99.90
67897;DHT22;54698;48.428;9.964;2022-11-20T06:33:41;2.90;99.90
67897;DHT22;54698;48.428;9.964;2022-11-20T06:36:07;2.90;99.90
67897;DHT22;54698;48.428;9.964;2022-11-20T06:38:37;2.90;99.90
67897;DHT22;54698;48.428;9.964;2022-11-20T06:41:03;2.90;99.90
67897;DHT22;54698;48.428;9.964;2022-11-20T06:43:29;2.90;99.90
67897;DHT22;54698;48.428;9.964;2022-11-20T06:45:57;2.90;99.90
67897;DHT22;54698;48.428;9.964;2022-11-20T06:48:25;2.90;99.90
67897;DHT22;54698;48.428;9.964;2022-11-20T06:50:51;2.90;99.90
67897;DHT22;54698;48.428;9.964;2022-11-20T06:53:17;2.90;99.90
67897;DHT22;54698;48.428;9.964;2022-11-20T06:55:46;2.90;99.90
67897;DHT22;54698;48.428;9.964;2022-11-20T06:58:13;2.90;99.90
67897;DHT22;54698;48.428;9.964;2022-11-20T07:00:39;2.90;99.90
67897;DHT22;54698;48.428;9.964;2022-11-20T07:03:06;3.00;99.90
67897;DHT22;54698;48.428;9.964;2022-11-20T07:05:33;3.00;99.90
67897;DHT22;54698;48.428;9.964;2022-11-20T07:07:59;3.10;99.90
67897;DHT22;54698;48.428;9.964;2022-11-20T07:10:25;3.10;99.90
67897;DHT22;54698;48.428;9.964;2022-11-20T07:12:53;3.10;99.90
67897;DHT22;54698;48.428;9.964;2022-11-20T07:15:21;3.10;99.90
67897;DHT22;54698;48.428;9.964;2022-11-20T07:17:48;3.10;99.90
67897;DHT22;54698;48.428;9.964;2022-11-20T07:20:14;3.10;99.90
67897;DHT22;54698;48.428;9.964;2022-11-20T07:22:41;3.10;99.90
67897;DHT22;54698;48.428;9.964;2022-11-20T07:25:08;3.10;99.90
67897;DHT22;54698;48.428;9.964;2022-11-20T07:27:34;3.10;99.90
67897;DHT22;54698;48.428;9.964;2022-11-20T07:30:02;3.20;99.90
67897;DHT22;54698;48.428;9.964;2022-11-20T07:32:29;3.20;99.90
67897;DHT22;54698;48.428;9.964;2022-11-20T07:34:54;3.20;99.90
67897;DHT22;54698;48.428;9.964;2022-11-20T07:37:20;3.20;99.90
67897;DHT22;54698;48.428;9.964;2022-11-20T07:39:47;3.20;99.90
67897;DHT22;54698;48.428;9.964;2022-11-20T07:42:13;3.20;99.90
67897;DHT22;54698;48.428;9.964;2022-11-20T07:44:39;3.30;99.90
67897;DHT22;54698;48.428;9.964;2022-11-20T07:47:06;3.30;99.90
67897;DHT22;54698;48.428;9.964;2022-11-20T07:49:32;3.40;99.90
67897;DHT22;54698;48.428;9.964;2022-11-20T07:51:58;3.40;99.90
67897;DHT22;54698;48.428;9.964;2022-11-20T07:54:23;3.40;99.90
67897;DHT22;54698;48.428;9.964;2022-11-20T07:56:49;3.40;99.90
67897;DHT22;54698;48.428;9.964;2022-11-20T07:59:15;3.40;99.90
67897;DHT22;54698;48.428;9.964;2022-11-20T08:01:42;3.50;99.90
67897;DHT22;54698;48.428;9.964;2022-11-20T08:04:09;3.60;99.90
67897;DHT22;54698;48.428;9.964;2022-11-20T08:06:36;3.60;99.90
67897;DHT22;54698;48.428;9.964;2022-11-20T08:09:02;3.60;99.90
67897;DHT22;54698;48.428;9.964;2022-11-20T08:11:28;3.60;99.90
67897;DHT22;54698;48.428;9.964;2022-11-20T08:13:54;3.60;99.90
67897;DHT22;54698;48.428;9.964;2022-11-20T08:16:20;3.60;99.90
67897;DHT22;54698;48.428;9.964;2022-11-20T08:18:46;3.60;99.90
67897;DHT22;54698;48.428;9.964;2022-11-20T08:21:13;3.70;99.90
67897;DHT22;54698;48.428;9.964;2022-11-20T08:23:39;3.70;99.90
67897;DHT22;54698;48.428;9.964;2022-11-20T08:26:05;3.80;99.90
67897;DHT22;54698;48.428;9.964;2022-11-20T08:28:31;3.90;99.90
67897;DHT22;54698;48.428;9.964;2022-11-20T08:30:58;3.90;99.90
67897;DHT22;54698;48.428;9.964;2022-11-20T08:33:24;3.90;99.90
67897;DHT22;54698;48.428;9.964;2022-11-20T08:35:50;3.90;99.90
67897;DHT22;54698;48.428;9.964;2022-11-20T08:38:17;3.90;99.90
67897;DHT22;54698;48.428;9.964;2022-11-20T08:40:43;3.90;99.90
67897;DHT22;54698;48.428;9.964;2022-11-20T08:43:09;3.90;99.90
67897;DHT22;54698;48.428;9.964;2022-11-20T08:45:35;4.00;99.90
67897;DHT22;54698;48.428;9.964;2022-11-20T08:48:01;4.00;99.90
67897;DHT22;54698;48.428;9.964;2022-11-20T08:50:28;4.00;99.90
67897;DHT22;54698;48.428;9.964;2022-11-20T08:52:54;4.10;99.90
67897;DHT22;54698;48.428;9.964;2022-11-20T08:55:21;4.10;99.90
67897;DHT22;54698;48.428;9.964;2022-11-20T08:57:47;4.10;99.90
67897;DHT22;54698;48.428;9.964;2022-11-20T09:00:14;4.10;99.90
67897;DHT22;54698;48.428;9.964;2022-11-20T09:02:41;4.20;99.90
67897;DHT22;54698;48.428;9.964;2022-11-20T09:05:07;4.20;99.90
67897;DHT22;54698;48.428;9.964;2022-11-20T09:07:33;4.20;99.90
67897;DHT22;54698;48.428;9.964;2022-11-20T09:09:59;4.20;99.90
67897;DHT22;54698;48.428;9.964;2022-11-20T09:12:26;4.20;99.90
67897;DHT22;54698;48.428;9.964;2022-11-20T09:14:52;4.30;99.90
67897;DHT22;54698;48.428;9.964;2022-11-20T09:17:18;4.30;99.90
67897;DHT22;54698;48.428;9.964;2022-11-20T09:19:44;4.30;99.90
67897;DHT22;54698;48.428;9.964;2022-11-20T09:22:10;4.30;99.90
67897;DHT22;54698;48.428;9.964;2022-11-20T09:24:36;4.40;99.90
67897;DHT22;54698;48.428;9.964;2022-11-20T09:27:03;4.50;99.90
67897;DHT22;54698;48.428;9.964;2022-11-20T09:29:31;4.60;99.90
67897;DHT22;54698;48.428;9.964;2022-11-20T09:31:57;4.60;99.90
67897;DHT22;54698;48.428;9.964;2022-11-20T09:34:23;4.70;99.90
67897;DHT22;54698;48.428;9.964;2022-11-20T09:36:49;4.60;99.90
67897;DHT22;54698;48.428;9.964;2022-11-20T09:39:15;4.60;99.90
67897;DHT22;54698;48.428;9.964;2022-11-20T09:42:08;4.50;99.90
67897;DHT22;54698;48.428;9.964;2022-11-20T09:45:05;4.50;99.90
67897;DHT22;54698;48.428;9.964;2022-11-20T09:47:49;4.70;99.90
67897;DHT22;54698;48.428;9.964;2022-11-20T09:50:27;4.70;99.90
67897;DHT22;54698;48.428;9.964;2022-11-20T09:53:10;4.70;99.90
67897;DHT22;54698;48.428;9.964;2022-11-20T09:55:38;4.80;99.90
67897;DHT22;54698;48.428;9.964;2022-11-20T09:58:06;4.80;99.90
67897;DHT22;54698;48.428;9.964;2022-11-20T10:00:35;4.80;99.90
67897;DHT22;54698;48.428;9.964;2022-11-20T10:03:05;4.80;99.90
67897;DHT22;54698;48.428;9.964;2022-11-20T10:05:41;4.80;99.90
67897;DHT22;54698;48.428;9.964;2022-11-20T10:08:16;4.90;99.90
67897;DHT22;54698;48.428;9.964;2022-11-20T10:10:46;4.90;99.90
67897;DHT22;54698;48.428;9.964;2022-11-20T10:13:24;5.00;99.90
67897;DHT22;54698;48.428;9.964;2022-11-20T10:16:05;5.00;99.90
67897;DHT22;54698;48.428;9.964;2022-11-20T10:18:54;5.00;99.90
67897;DHT22;54698;48.428;9.964;2022-11-20T10:21:35;5.00;99.90
67897;DHT22;54698;48.428;9.964;2022-11-20T10:24:21;5.00;99.90
67897;DHT22;54698;48.428;9.964;2022-11-20T10:26:59;4.90;99.90
67897;DHT22;54698;48.428;9.964;2022-11-20T10:29:33;5.00;99.90
67897;DHT22;54698;48.428;9.964;2022-11-20T10:32:03;5.00;99.90
67897;DHT22;54698;48.428;9.964;2022-11-20T10:34:35;5.10;99.90
67897;DHT22;54698;48.428;9.964;2022-11-20T10:37:11;5.10;99.90
67897;DHT22;54698;48.428;9.964;2022-11-20T10:39:44;5.00;99.90
67897;DHT22;54698;48.428;9.964;2022-11-20T10:42:28;5.20;99.90
67897;DHT22;54698;48.428;9.964;2022-11-20T10:45:04;5.20;99.90
67897;DHT22;54698;48.428;9.964;2022-11-20T10:47:40;5.20;99.90
67897;DHT22;54698;48.428;9.964;2022-11-20T10:50:11;5.20;99.90
67897;DHT22;54698;48.428;9.964;2022-11-20T10:52:41;5.20;99.90
67897;DHT22;54698;48.428;9.964;2022-11-20T10:55:25;5.00;99.90
67897;DHT22;54698;48.428;9.964;2022-11-20T10:58:01;4.90;99.90
67897;DHT22;54698;48.428;9.964;2022-11-20T11:00:31;4.80;99.90
67897;DHT22;54698;48.428;9.964;2022-11-20T11:02:58;4.80;99.90
67897;DHT22;54698;48.428;9.964;2022-11-20T11:05:33;4.80;99.90
67897;DHT22;54698;48.428;9.964;2022-11-20T11:08:03;4.90;99.90
67897;DHT22;54698;48.428;9.964;2022-11-20T11:10:38;4.90;99.90
67897;DHT22;54698;48.428;9.964;2022-11-20T11:13:20;5.00;99.90
67897;DHT22;54698;48.428;9.964;2022-11-20T11:15:46;5.00;99.90
67897;DHT22;54698;48.428;9.964;2022-11-20T11:18:23;5.10;99.90
67897;DHT22;54698;48.428;9.964;2022-11-20T11:20:51;5.10;99.90
67897;DHT22;54698;48.428;9.964;2022-11-20T11:23:29;5.10;99.90
67897;DHT22;54698;48.428;9.964;2022-11-20T11:26:00;5.10;99.90
67897;DHT22;54698;48.428;9.964;2022-11-20T11:28:27;5.00;99.90
67897;DHT22;54698;48.428;9.964;2022-11-20T11:30:54;5.10;99.90
67897;DHT22;54698;48.428;9.964;2022-11-20T11:33:23;5.10;99.90
67897;DHT22;54698;48.428;9.964;2022-11-20T11:35:52;5.10;99.90
67897;DHT22;54698;48.428;9.964;2022-11-20T11:38:22;5.10;99.90
67897;DHT22;54698;48.428;9.964;2022-11-20T11:40:55;5.20;99.90
67897;DHT22;54698;48.428;9.964;2022-11-20T11:43:23;5.30;99.90
67897;DHT22;54698;48.428;9.964;2022-11-20T11:45:52;5.30;99.90
67897;DHT22;54698;48.428;9.964;2022-11-20T11:48:22;5.40;99.90
67897;DHT22;54698;48.428;9.964;2022-11-20T11:50:48;5.40;99.90
67897;DHT22;54698;48.428;9.964;2022-11-20T11:53:16;5.50;99.90
67897;DHT22;54698;48.428;9.964;2022-11-20T11:55:46;5.50;99.90
67897;DHT22;54698;48.428;9.964;2022-11-20T11:58:20;5.60;99.90
67897;DHT22;54698;48.428;9.964;2022-11-20T12:01:17;5.50;99.90
67897;DHT22;54698;48.428;9.964;2022-11-20T12:03:55;5.50;99.90
67897;DHT22;54698;48.428;9.964;2022-11-20T12:06:26;5.50;99.90
67897;DHT22;54698;48.428;9.964;2022-11-20T12:08:55;5.50;99.90
67897;DHT22;54698;48.428;9.964;2022-11-20T12:11:30;5.60;99.90
67897;DHT22;54698;48.428;9.964;2022-11-20T12:14:02;5.70;99.90
67897;DHT22;54698;48.428;9.964;2022-11-20T12:16:35;5.70;99.90
67897;DHT22;54698;48.428;9.964;2022-11-20T12:19:08;5.80;99.90
67897;DHT22;54698;48.428;9.964;2022-11-20T12:21:45;5.80;99.90
67897;DHT22;54698;48.428;9.964;2022-11-20T12:24:34;5.80;99.90
67897;DHT22;54698;48.428;9.964;2022-11-20T12:27:21;5.80;99.90
67897;DHT22;54698;48.428;9.964;2022-11-20T12:30:03;5.80;99.90
67897;DHT22;54698;48.428;9.964;2022-11-20T12:32:52;5.90;99.90
67897;DHT22;54698;48.428;9.964;2022-11-20T12:35:59;6.00;99.90
67897;DHT22;54698;48.428;9.964;2022-11-20T12:41:49;6.00;99.90
67897;DHT22;54698;48.428;9.964;2022-11-20T12:44:33;6.10;99.90
67897;DHT22;54698;48.428;9.964;2022-11-20T12:47:26;6.30;99.90
67897;DHT22;54698;48.428;9.964;2022-11-20T12:50:01;6.40;99.90
67897;DHT22;54698;48.428;9.964;2022-11-20T12:52:37;6.50;99.90
67897;DHT22;54698;48.428;9.964;2022-11-20T12:55:13;6.50;99.90
67897;DHT22;54698;48.428;9.964;2022-11-20T12:57:47;6.40;99.90
67897;DHT22;54698;48.428;9.964;2022-11-20T13:00:18;6.40;99.90
67897;DHT22;54698;48.428;9.964;2022-11-20T13:03:11;6.40;99.90
67897;DHT22;54698;48.428;9.964;2022-11-20T13:06:11;6.60;99.90
67897;DHT22;54698;48.428;9.964;2022-11-20T13:08:45;6.60;99.90
67897;DHT22;54698;48.428;9.964;2022-11-20T13:11:18;6.90;99.90
67897;DHT22;54698;48.428;9.964;2022-11-20T13:14:04;7.00;99.90
67897;DHT22;54698;48.428;9.964;2022-11-20T13:16:51;7.60;99.90
67897;DHT22;54698;48.428;9.964;2022-11-20T13:19:20;8.20;99.90
67897;DHT22;54698;48.428;9.964;2022-11-20T13:21:47;9.60;99.90
67897;DHT22;54698;48.428;9.964;2022-11-20T13:24:24;10.30;99.90
67897;DHT22;54698;48.428;9.964;2022-11-20T13:27:04;9.80;99.90
67897;DHT22;54698;48.428;9.964;2022-11-20T13:29:44;9.50;99.90
67897;DHT22;54698;48.428;9.964;2022-11-20T13:32:14;9.10;99.90
67897;DHT22;54698;48.428;9.964;2022-11-20T13:34:51;8.60;99.90
67897;DHT22;54698;48.428;9.964;2022-11-20T13:37:27;8.20;99.90
67897;DHT22;54698;48.428;9.964;2022-11-20T13:40:12;8.00;99.90
67897;DHT22;54698;48.428;9.964;2022-11-20T13:42:54;8.40;99.90
67897;DHT22;54698;48.428;9.964;2022-11-20T13:45:23;9.10;99.90
67897;DHT22;54698;48.428;9.964;2022-11-20T13:47:52;9.30;99.90
67897;DHT22;54698;48.428;9.964;2022-11-20T13:50:23;9.80;99.90
67897;DHT22;54698;48.428;9.964;2022-11-20T13:53:23;9.40;99.90
67897;DHT22;54698;48.428;9.964;2022-11-20T13:56:07;8.40;99.90
67897;DHT22;54698;48.428;9.964;2022-11-20T13:58:47;7.60;99.90
67897;DHT22;54698;48.428;9.964;2022-11-20T14:01:21;7.20;99.90
67897;DHT22;54698;48.428;9.964;2022-11-20T14:03:49;6.90;99.90
67897;DHT22;54698;48.428;9.964;2022-11-20T14:06:24;6.70;99.90
67897;DHT22;54698;48.428;9.964;2022-11-20T14:08:52;6.50;99.90
67897;DHT22;54698;48.428;9.964;2022-11-20T14:11:22;6.40;99.90
67897;DHT22;54698;48.428;9.964;2022-11-20T14:13:58;6.50;99.90
67897;DHT22;54698;48.428;9.964;2022-11-20T14:16:27;6.50;99.90
67897;DHT22;54698;48.428;9.964;2022-11-20T14:18:56;6.50;99.90
67897;DHT22;54698;48.428;9.964;2022-11-20T14:21:27;6.60;99.90
67897;DHT22;54698;48.428;9.964;2022-11-20T14:24:03;6.60;99.90
67897;DHT22;54698;48.428;9.964;2022-11-20T14:26:31;6.60;99.90
67897;DHT22;54698;48.428;9.964;2022-11-20T14:28:57;6.50;99.90
67897;DHT22;54698;48.428;9.964;2022-11-20T14:31:25;6.50;99.90
67897;DHT22;54698;48.428;9.964;2022-11-20T14:33:53;6.40;99.90
67897;DHT22;54698;48.428;9.964;2022-11-20T14:36:21;6.40;99.90
67897;DHT22;54698;48.428;9.964;2022-11-20T14:38:49;6.30;99.90
67897;DHT22;54698;48.428;9.964;2022-11-20T14:41:18;6.30;99.90
67897;DHT22;54698;48.428;9.964;2022-11-20T14:43:49;6.20;99.90
67897;DHT22;54698;48.428;9.964;2022-11-20T14:46:19;6.10;99.90
67897;DHT22;54698;48.428;9.964;2022-11-20T14:48:47;6.10;99.90
67897;DHT22;54698;48.428;9.964;2022-11-20T14:51:29;6.10;99.90
67897;DHT22;54698;48.428;9.964;2022-11-20T14:54:07;6.10;99.90
67897;DHT22;54698;48.428;9.964;2022-11-20T14:56:33;6.20;99.90
67897;DHT22;54698;48.428;9.964;2022-11-20T14:59:01;6.20;99.90
67897;DHT22;54698;48.428;9.964;2022-11-20T15:01:29;6.30;99.90
67897;DHT22;54698;48.428;9.964;2022-11-20T15:04:01;6.20;99.90
67897;DHT22;54698;48.428;9.964;2022-11-20T15:06:30;6.20;99.90
67897;DHT22;54698;48.428;9.964;2022-11-20T15:08:56;6.20;99.90
67897;DHT22;54698;48.428;9.964;2022-11-20T15:11:28;6.10;99.90
67897;DHT22;54698;48.428;9.964;2022-11-20T15:13:55;6.00;99.90
67897;DHT22;54698;48.428;9.964;2022-11-20T15:16:23;5.90;99.90
67897;DHT22;54698;48.428;9.964;2022-11-20T15:18:49;5.90;99.90
67897;DHT22;54698;48.428;9.964;2022-11-20T15:21:18;5.90;99.90
67897;DHT22;54698;48.428;9.964;2022-11-20T15:23:45;5.80;99.90
67897;DHT22;54698;48.428;9.964;2022-11-20T15:26:12;5.70;99.90
67897;DHT22;54698;48.428;9.964;2022-11-20T15:28:41;5.60;99.90
67897;DHT22;54698;48.428;9.964;2022-11-20T15:31:11;5.50;99.90
67897;DHT22;54698;48.428;9.964;2022-11-20T15:33:39;5.40;99.90
67897;DHT22;54698;48.428;9.964;2022-11-20T15:36:06;5.30;99.90
67897;DHT22;54698;48.428;9.964;2022-11-20T15:38:32;5.20;99.90
67897;DHT22;54698;48.428;9.964;2022-11-20T15:40:58;5.10;99.90
67897;DHT22;54698;48.428;9.964;2022-11-20T15:43:25;5.10;99.90
67897;DHT22;54698;48.428;9.964;2022-11-20T15:45:53;5.00;99.90
67897;DHT22;54698;48.428;9.964;2022-11-20T15:48:21;4.90;99.90
67897;DHT22;54698;48.428;9.964;2022-11-20T15:50:54;4.80;99.90
67897;DHT22;54698;48.428;9.964;2022-11-20T15:53:24;4.70;99.90
67897;DHT22;54698;48.428;9.964;2022-11-20T15:55:50;4.70;99.90
67897;DHT22;54698;48.428;9.964;2022-11-20T15:58:16;4.80;99.90
67897;DHT22;54698;48.428;9.964;2022-11-20T16:00:43;4.80;99.90
67897;DHT22;54698;48.428;9.964;2022-11-20T16:03:09;4.80;99.90